sensor_id;sensor_type;location;lat;lon;timestamp;P1;durP1;ratioP1;P2;durP2;ratioP2
43297;SDS011;28892;55.640;37.532;2022-08-30T00:00:36;14.57;;;7.05;;
43297;SDS011;28892;55.640;37.532;2022-08-30T00:03:20;15.45;;;7.78;;
43297;SDS011;28892;55.640;37.532;2022-08-30T00:05:46;13.80;;;7.45;;
43297;SDS011;28892;55.640;37.532;2022-08-30T00:08:12;12.02;;;7.40;;
43297;SDS011;28892;55.640;37.532;2022-08-30T00:10:39;12.02;;;7.63;;
43297;SDS011;28892;55.640;37.532;2022-08-30T00:13:07;14.20;;;8.32;;
43297;SDS011;28892;55.640;37.532;2022-08-30T00:15:33;15.63;;;7.22;;
43297;SDS011;28892;55.640;37.532;2022-08-30T00:17:59;14.88;;;6.90;;
43297;SDS011;28892;55.640;37.532;2022-08-30T00:20:27;14.38;;;7.80;;
43297;SDS011;28892;55.640;37.532;2022-08-30T00:22:54;15.48;;;7.40;;
43297;SDS011;28892;55.640;37.532;2022-08-30T00:25:20;14.07;;;7.68;;
43297;SDS011;28892;55.640;37.532;2022-08-30T00:27:46;16.35;;;7.78;;
43297;SDS011;28892;55.640;37.532;2022-08-30T00:30:13;12.43;;;8.07;;
43297;SDS011;28892;55.640;37.532;2022-08-30T00:32:40;13.18;;;7.50;;
43297;SDS011;28892;55.640;37.532;2022-08-30T00:35:07;12.55;;;8.02;;
43297;SDS011;28892;55.640;37.532;2022-08-30T00:37:34;12.75;;;7.70;;
43297;SDS011;28892;55.640;37.532;2022-08-30T00:40:00;16.30;;;7.78;;
43297;SDS011;28892;55.640;37.532;2022-08-30T00:42:28;13.88;;;7.40;;
43297;SDS011;28892;55.640;37.532;2022-08-30T00:44:54;14.98;;;8.30;;
43297;SDS011;28892;55.640;37.532;2022-08-30T00:47:45;19.50;;;8.80;;
43297;SDS011;28892;55.640;37.532;2022-08-30T00:50:12;12.55;;;7.82;;
43297;SDS011;28892;55.640;37.532;2022-08-30T00:52:40;12.80;;;7.68;;
43297;SDS011;28892;55.640;37.532;2022-08-30T00:55:09;13.63;;;7.88;;
43297;SDS011;28892;55.640;37.532;2022-08-30T00:57:39;13.82;;;7.70;;
43297;SDS011;28892;55.640;37.532;2022-08-30T01:00:06;11.95;;;7.93;;
43297;SDS011;28892;55.640;37.532;2022-08-30T01:02:32;14.15;;;7.72;;
43297;SDS011;28892;55.640;37.532;2022-08-30T01:04:59;11.68;;;7.43;;
43297;SDS011;28892;55.640;37.532;2022-08-30T01:07:28;13.68;;;7.65;;
43297;SDS011;28892;55.640;37.532;2022-08-30T01:09:54;12.95;;;7.80;;
43297;SDS011;28892;55.640;37.532;2022-08-30T01:12:20;15.15;;;8.02;;
43297;SDS011;28892;55.640;37.532;2022-08-30T01:14:47;17.40;;;8.25;;
43297;SDS011;28892;55.640;37.532;2022-08-30T01:17:14;15.52;;;8.60;;
43297;SDS011;28892;55.640;37.532;2022-08-30T01:19:50;14.63;;;7.72;;
43297;SDS011;28892;55.640;37.532;2022-08-30T01:22:27;10.90;;;7.90;;
43297;SDS011;28892;55.640;37.532;2022-08-30T01:25:02;12.73;;;8.07;;
43297;SDS011;28892;55.640;37.532;2022-08-30T01:27:30;19.30;;;8.95;;
43297;SDS011;28892;55.640;37.532;2022-08-30T01:29:58;12.75;;;7.65;;
43297;SDS011;28892;55.640;37.532;2022-08-30T01:32:26;15.15;;;8.10;;
43297;SDS011;28892;55.640;37.532;2022-08-30T01:34:54;13.48;;;8.30;;
43297;SDS011;28892;55.640;37.532;2022-08-30T01:37:22;15.60;;;8.30;;
43297;SDS011;28892;55.640;37.532;2022-08-30T01:39:52;14.33;;;8.70;;
43297;SDS011;28892;55.640;37.532;2022-08-30T01:42:18;15.35;;;8.05;;
43297;SDS011;28892;55.640;37.532;2022-08-30T01:44:44;13.55;;;7.97;;
43297;SDS011;28892;55.640;37.532;2022-08-30T01:47:11;15.95;;;8.73;;
43297;SDS011;28892;55.640;37.532;2022-08-30T01:49:37;13.63;;;8.50;;
43297;SDS011;28892;55.640;37.532;2022-08-30T01:52:04;14.73;;;8.23;;
43297;SDS011;28892;55.640;37.532;2022-08-30T01:54:32;15.60;;;9.07;;
43297;SDS011;28892;55.640;37.532;2022-08-30T01:57:00;14.02;;;8.75;;
43297;SDS011;28892;55.640;37.532;2022-08-30T01:59:26;16.98;;;8.15;;
43297;SDS011;28892;55.640;37.532;2022-08-30T02:01:52;13.38;;;7.82;;
43297;SDS011;28892;55.640;37.532;2022-08-30T02:04:18;15.85;;;8.40;;
43297;SDS011;28892;55.640;37.532;2022-08-30T02:06:44;18.33;;;9.30;;
43297;SDS011;28892;55.640;37.532;2022-08-30T02:09:10;18.80;;;9.05;;
43297;SDS011;28892;55.640;37.532;2022-08-30T02:11:37;17.98;;;8.68;;
43297;SDS011;28892;55.640;37.532;2022-08-30T02:14:03;11.98;;;8.05;;
43297;SDS011;28892;55.640;37.532;2022-08-30T02:16:30;14.50;;;7.82;;
43297;SDS011;28892;55.640;37.532;2022-08-30T02:18:56;13.43;;;8.38;;
43297;SDS011;28892;55.640;37.532;2022-08-30T02:21:23;17.95;;;8.10;;
43297;SDS011;28892;55.640;37.532;2022-08-30T02:23:49;13.20;;;8.23;;
43297;SDS011;28892;55.640;37.532;2022-08-30T02:26:16;13.73;;;8.75;;
43297;SDS011;28892;55.640;37.532;2022-08-30T02:28:43;14.25;;;8.40;;
43297;SDS011;28892;55.640;37.532;2022-08-30T02:31:09;18.80;;;8.95;;
43297;SDS011;28892;55.640;37.532;2022-08-30T02:33:35;17.10;;;9.15;;
43297;SDS011;28892;55.640;37.532;2022-08-30T02:36:02;14.25;;;8.50;;
43297;SDS011;28892;55.640;37.532;2022-08-30T02:38:29;16.65;;;8.88;;
43297;SDS011;28892;55.640;37.532;2022-08-30T02:40:55;14.93;;;8.23;;
43297;SDS011;28892;55.640;37.532;2022-08-30T02:43:21;18.40;;;9.05;;
43297;SDS011;28892;55.640;37.532;2022-08-30T02:45:47;18.38;;;8.82;;
43297;SDS011;28892;55.640;37.532;2022-08-30T02:48:12;17.00;;;9.05;;
43297;SDS011;28892;55.640;37.532;2022-08-30T02:50:39;16.08;;;8.50;;
43297;SDS011;28892;55.640;37.532;2022-08-30T02:53:09;13.40;;;8.55;;
43297;SDS011;28892;55.640;37.532;2022-08-30T02:55:35;18.02;;;9.50;;
43297;SDS011;28892;55.640;37.532;2022-08-30T02:58:01;19.30;;;8.93;;
43297;SDS011;28892;55.640;37.532;2022-08-30T03:00:27;18.13;;;9.90;;
43297;SDS011;28892;55.640;37.532;2022-08-30T03:02:53;20.42;;;9.57;;
43297;SDS011;28892;55.640;37.532;2022-08-30T03:05:21;15.98;;;8.43;;
43297;SDS011;28892;55.640;37.532;2022-08-30T03:07:48;14.40;;;8.80;;
43297;SDS011;28892;55.640;37.532;2022-08-30T03:10:14;14.60;;;9.25;;
43297;SDS011;28892;55.640;37.532;2022-08-30T03:12:40;15.40;;;9.27;;
43297;SDS011;28892;55.640;37.532;2022-08-30T03:15:07;15.95;;;8.82;;
43297;SDS011;28892;55.640;37.532;2022-08-30T03:17:36;22.58;;;10.25;;
43297;SDS011;28892;55.640;37.532;2022-08-30T03:20:02;17.75;;;9.65;;
43297;SDS011;28892;55.640;37.532;2022-08-30T03:22:29;15.93;;;9.15;;
43297;SDS011;28892;55.640;37.532;2022-08-30T03:24:54;15.02;;;8.60;;
43297;SDS011;28892;55.640;37.532;2022-08-30T03:27:25;17.90;;;8.40;;
43297;SDS011;28892;55.640;37.532;2022-08-30T03:29:51;15.23;;;10.00;;
43297;SDS011;28892;55.640;37.532;2022-08-30T03:32:17;15.73;;;8.77;;
43297;SDS011;28892;55.640;37.532;2022-08-30T03:34:43;17.00;;;8.90;;
43297;SDS011;28892;55.640;37.532;2022-08-30T03:37:09;16.30;;;9.60;;
43297;SDS011;28892;55.640;37.532;2022-08-30T03:39:35;18.58;;;9.98;;
43297;SDS011;28892;55.640;37.532;2022-08-30T03:42:01;15.43;;;9.15;;
43297;SDS011;28892;55.640;37.532;2022-08-30T03:44:27;12.13;;;8.63;;
43297;SDS011;28892;55.640;37.532;2022-08-30T03:46:52;14.20;;;9.23;;
43297;SDS011;28892;55.640;37.532;2022-08-30T03:49:18;15.35;;;8.57;;
43297;SDS011;28892;55.640;37.532;2022-08-30T03:51:45;14.80;;;9.70;;
43297;SDS011;28892;55.640;37.532;2022-08-30T03:54:11;14.82;;;9.63;;
43297;SDS011;28892;55.640;37.532;2022-08-30T03:56:38;16.70;;;10.25;;
43297;SDS011;28892;55.640;37.532;2022-08-30T03:59:03;13.38;;;9.25;;
43297;SDS011;28892;55.640;37.532;2022-08-30T04:01:29;16.90;;;9.90;;
43297;SDS011;28892;55.640;37.532;2022-08-30T04:03:55;21.50;;;10.38;;
43297;SDS011;28892;55.640;37.532;2022-08-30T04:06:21;14.82;;;9.85;;
43297;SDS011;28892;55.640;37.532;2022-08-30T04:08:47;18.92;;;10.77;;
43297;SDS011;28892;55.640;37.532;2022-08-30T04:11:13;16.52;;;9.68;;
43297;SDS011;28892;55.640;37.532;2022-08-30T04:13:41;15.00;;;9.43;;
43297;SDS011;28892;55.640;37.532;2022-08-30T04:16:09;15.70;;;10.07;;
43297;SDS011;28892;55.640;37.532;2022-08-30T04:18:35;21.73;;;11.20;;
43297;SDS011;28892;55.640;37.532;2022-08-30T04:21:02;17.67;;;10.00;;
43297;SDS011;28892;55.640;37.532;2022-08-30T04:23:28;17.55;;;10.07;;
43297;SDS011;28892;55.640;37.532;2022-08-30T04:25:54;18.80;;;9.75;;
43297;SDS011;28892;55.640;37.532;2022-08-30T04:28:20;16.27;;;9.98;;
43297;SDS011;28892;55.640;37.532;2022-08-30T04:30:46;17.48;;;10.60;;
43297;SDS011;28892;55.640;37.532;2022-08-30T04:33:13;14.85;;;9.80;;
43297;SDS011;28892;55.640;37.532;2022-08-30T04:35:43;18.77;;;9.48;;
43297;SDS011;28892;55.640;37.532;2022-08-30T04:38:10;13.07;;;9.18;;
43297;SDS011;28892;55.640;37.532;2022-08-30T04:40:39;17.17;;;10.40;;
43297;SDS011;28892;55.640;37.532;2022-08-30T04:43:06;18.05;;;10.50;;
43297;SDS011;28892;55.640;37.532;2022-08-30T04:45:32;17.83;;;10.40;;
43297;SDS011;28892;55.640;37.532;2022-08-30T04:47:57;15.70;;;10.70;;
43297;SDS011;28892;55.640;37.532;2022-08-30T04:50:23;17.70;;;11.18;;
43297;SDS011;28892;55.640;37.532;2022-08-30T04:52:49;19.70;;;11.45;;
43297;SDS011;28892;55.640;37.532;2022-08-30T04:55:15;19.00;;;11.02;;
43297;SDS011;28892;55.640;37.532;2022-08-30T04:57:41;17.38;;;11.55;;
43297;SDS011;28892;55.640;37.532;2022-08-30T05:00:09;19.85;;;11.48;;
43297;SDS011;28892;55.640;37.532;2022-08-30T05:02:37;17.13;;;12.32;;
43297;SDS011;28892;55.640;37.532;2022-08-30T05:05:04;19.75;;;11.32;;
43297;SDS011;28892;55.640;37.532;2022-08-30T05:07:48;18.23;;;11.70;;
43297;SDS011;28892;55.640;37.532;2022-08-30T05:10:14;19.73;;;10.90;;
43297;SDS011;28892;55.640;37.532;2022-08-30T05:12:40;19.67;;;11.93;;
43297;SDS011;28892;55.640;37.532;2022-08-30T05:15:07;15.77;;;11.13;;
43297;SDS011;28892;55.640;37.532;2022-08-30T05:17:35;18.63;;;12.25;;
43297;SDS011;28892;55.640;37.532;2022-08-30T05:20:02;14.93;;;11.77;;
43297;SDS011;28892;55.640;37.532;2022-08-30T05:22:29;18.55;;;11.60;;
43297;SDS011;28892;55.640;37.532;2022-08-30T05:24:54;15.25;;;10.77;;
43297;SDS011;28892;55.640;37.532;2022-08-30T05:27:20;14.80;;;10.68;;
43297;SDS011;28892;55.640;37.532;2022-08-30T05:29:46;18.30;;;11.60;;
43297;SDS011;28892;55.640;37.532;2022-08-30T05:32:11;21.45;;;12.38;;
43297;SDS011;28892;55.640;37.532;2022-08-30T05:34:37;16.38;;;11.10;;
43297;SDS011;28892;55.640;37.532;2022-08-30T05:37:03;16.80;;;11.50;;
43297;SDS011;28892;55.640;37.532;2022-08-30T05:39:28;19.85;;;12.60;;
43297;SDS011;28892;55.640;37.532;2022-08-30T05:41:55;17.80;;;11.48;;
43297;SDS011;28892;55.640;37.532;2022-08-30T05:44:21;16.02;;;10.70;;
43297;SDS011;28892;55.640;37.532;2022-08-30T05:46:47;16.98;;;10.85;;
43297;SDS011;28892;55.640;37.532;2022-08-30T05:49:13;17.45;;;11.55;;
43297;SDS011;28892;55.640;37.532;2022-08-30T05:51:39;20.15;;;11.60;;
43297;SDS011;28892;55.640;37.532;2022-08-30T05:54:05;19.30;;;11.45;;
43297;SDS011;28892;55.640;37.532;2022-08-30T05:56:33;16.73;;;11.45;;
43297;SDS011;28892;55.640;37.532;2022-08-30T05:59:01;14.05;;;11.13;;
43297;SDS011;28892;55.640;37.532;2022-08-30T06:01:28;15.65;;;11.85;;
43297;SDS011;28892;55.640;37.532;2022-08-30T06:03:56;19.45;;;11.88;;
43297;SDS011;28892;55.640;37.532;2022-08-30T06:06:24;20.13;;;12.65;;
43297;SDS011;28892;55.640;37.532;2022-08-30T06:08:50;18.83;;;11.98;;
43297;SDS011;28892;55.640;37.532;2022-08-30T06:11:17;19.88;;;12.85;;
43297;SDS011;28892;55.640;37.532;2022-08-30T06:13:46;17.27;;;12.50;;
43297;SDS011;28892;55.640;37.532;2022-08-30T06:16:13;18.85;;;12.20;;
43297;SDS011;28892;55.640;37.532;2022-08-30T06:18:40;19.23;;;12.60;;
43297;SDS011;28892;55.640;37.532;2022-08-30T06:21:07;19.77;;;12.63;;
43297;SDS011;28892;55.640;37.532;2022-08-30T06:23:33;14.88;;;11.85;;
43297;SDS011;28892;55.640;37.532;2022-08-30T06:26:05;18.42;;;13.10;;
43297;SDS011;28892;55.640;37.532;2022-08-30T06:28:32;18.98;;;11.82;;
43297;SDS011;28892;55.640;37.532;2022-08-30T06:30:58;19.50;;;11.82;;
43297;SDS011;28892;55.640;37.532;2022-08-30T06:33:23;15.80;;;11.90;;
43297;SDS011;28892;55.640;37.532;2022-08-30T06:35:49;14.35;;;11.75;;
43297;SDS011;28892;55.640;37.532;2022-08-30T06:38:15;18.23;;;12.60;;
43297;SDS011;28892;55.640;37.532;2022-08-30T06:40:41;19.52;;;12.10;;
43297;SDS011;28892;55.640;37.532;2022-08-30T06:43:07;19.75;;;11.32;;
43297;SDS011;28892;55.640;37.532;2022-08-30T06:45:33;18.75;;;12.20;;
43297;SDS011;28892;55.640;37.532;2022-08-30T06:47:59;21.40;;;13.55;;
43297;SDS011;28892;55.640;37.532;2022-08-30T06:50:26;16.15;;;12.02;;
43297;SDS011;28892;55.640;37.532;2022-08-30T06:52:52;20.65;;;12.80;;
43297;SDS011;28892;55.640;37.532;2022-08-30T06:55:17;16.77;;;11.05;;
43297;SDS011;28892;55.640;37.532;2022-08-30T06:57:44;16.75;;;11.60;;
43297;SDS011;28892;55.640;37.532;2022-08-30T07:00:12;18.58;;;12.50;;
43297;SDS011;28892;55.640;37.532;2022-08-30T07:02:40;19.30;;;11.60;;
43297;SDS011;28892;55.640;37.532;2022-08-30T07:05:06;15.45;;;11.57;;
43297;SDS011;28892;55.640;37.532;2022-08-30T07:07:33;19.65;;;12.73;;
43297;SDS011;28892;55.640;37.532;2022-08-30T07:10:03;18.60;;;12.50;;
43297;SDS011;28892;55.640;37.532;2022-08-30T07:12:30;20.92;;;12.73;;
43297;SDS011;28892;55.640;37.532;2022-08-30T07:14:56;15.43;;;11.70;;
43297;SDS011;28892;55.640;37.532;2022-08-30T07:17:21;20.88;;;13.18;;
43297;SDS011;28892;55.640;37.532;2022-08-30T07:20:06;16.55;;;11.35;;
43297;SDS011;28892;55.640;37.532;2022-08-30T07:22:32;17.25;;;13.10;;
43297;SDS011;28892;55.640;37.532;2022-08-30T07:24:58;18.67;;;13.43;;
43297;SDS011;28892;55.640;37.532;2022-08-30T07:27:24;25.80;;;13.23;;
43297;SDS011;28892;55.640;37.532;2022-08-30T07:29:50;23.30;;;12.52;;
43297;SDS011;28892;55.640;37.532;2022-08-30T07:32:15;24.42;;;14.43;;
43297;SDS011;28892;55.640;37.532;2022-08-30T07:34:41;19.85;;;12.02;;
43297;SDS011;28892;55.640;37.532;2022-08-30T07:37:07;19.02;;;12.02;;
43297;SDS011;28892;55.640;37.532;2022-08-30T07:39:32;24.63;;;12.25;;
43297;SDS011;28892;55.640;37.532;2022-08-30T07:41:58;18.00;;;12.07;;
43297;SDS011;28892;55.640;37.532;2022-08-30T07:44:24;16.58;;;12.73;;
43297;SDS011;28892;55.640;37.532;2022-08-30T07:46:50;16.50;;;12.48;;
43297;SDS011;28892;55.640;37.532;2022-08-30T07:49:16;17.08;;;12.38;;
43297;SDS011;28892;55.640;37.532;2022-08-30T07:51:43;19.33;;;12.80;;
43297;SDS011;28892;55.640;37.532;2022-08-30T07:54:09;20.13;;;12.38;;
43297;SDS011;28892;55.640;37.532;2022-08-30T07:56:34;13.88;;;12.30;;
43297;SDS011;28892;55.640;37.532;2022-08-30T07:59:00;18.13;;;11.80;;
43297;SDS011;28892;55.640;37.532;2022-08-30T08:01:26;17.35;;;12.13;;
43297;SDS011;28892;55.640;37.532;2022-08-30T08:03:52;16.30;;;11.55;;
43297;SDS011;28892;55.640;37.532;2022-08-30T08:06:18;15.85;;;10.77;;
43297;SDS011;28892;55.640;37.532;2022-08-30T08:08:46;19.80;;;12.43;;
43297;SDS011;28892;55.640;37.532;2022-08-30T08:11:17;17.80;;;11.50;;
43297;SDS011;28892;55.640;37.532;2022-08-30T08:13:45;23.60;;;12.45;;
43297;SDS011;28892;55.640;37.532;2022-08-30T08:16:12;17.00;;;11.93;;
43297;SDS011;28892;55.640;37.532;2022-08-30T08:18:37;17.88;;;12.18;;
43297;SDS011;28892;55.640;37.532;2022-08-30T08:21:03;13.32;;;9.73;;
43297;SDS011;28892;55.640;37.532;2022-08-30T08:23:29;16.60;;;11.65;;
43297;SDS011;28892;55.640;37.532;2022-08-30T08:25:55;17.63;;;13.00;;
43297;SDS011;28892;55.640;37.532;2022-08-30T08:28:21;17.90;;;11.32;;
43297;SDS011;28892;55.640;37.532;2022-08-30T08:30:47;15.52;;;11.35;;
43297;SDS011;28892;55.640;37.532;2022-08-30T08:33:14;17.98;;;11.00;;
43297;SDS011;28892;55.640;37.532;2022-08-30T08:35:41;22.15;;;11.38;;
43297;SDS011;28892;55.640;37.532;2022-08-30T08:38:07;14.55;;;11.73;;
43297;SDS011;28892;55.640;37.532;2022-08-30T08:40:34;17.50;;;12.70;;
43297;SDS011;28892;55.640;37.532;2022-08-30T08:43:13;15.90;;;12.00;;
43297;SDS011;28892;55.640;37.532;2022-08-30T08:51:11;12.75;;;11.40;;
43297;SDS011;28892;55.640;37.532;2022-08-30T08:53:59;19.00;;;13.48;;
43297;SDS011;28892;55.640;37.532;2022-08-30T08:58:55;16.60;;;12.93;;
43297;SDS011;28892;55.640;37.532;2022-08-30T09:01:26;18.95;;;14.18;;
43297;SDS011;28892;55.640;37.532;2022-08-30T09:03:55;20.85;;;13.55;;
43297;SDS011;28892;55.640;37.532;2022-08-30T09:06:32;16.05;;;13.90;;
43297;SDS011;28892;55.640;37.532;2022-08-30T09:09:02;21.77;;;14.65;;
43297;SDS011;28892;55.640;37.532;2022-08-30T09:11:29;22.35;;;14.95;;
43297;SDS011;28892;55.640;37.532;2022-08-30T09:13:56;20.25;;;15.65;;
43297;SDS011;28892;55.640;37.532;2022-08-30T09:20:22;19.50;;;14.23;;
43297;SDS011;28892;55.640;37.532;2022-08-30T09:22:21;21.83;;;14.02;;
43297;SDS011;28892;55.640;37.532;2022-08-30T09:24:54;21.65;;;15.13;;
43297;SDS011;28892;55.640;37.532;2022-08-30T09:27:50;20.80;;;14.35;;
43297;SDS011;28892;55.640;37.532;2022-08-30T09:30:23;19.42;;;14.73;;
43297;SDS011;28892;55.640;37.532;2022-08-30T09:35:24;22.33;;;16.38;;
43297;SDS011;28892;55.640;37.532;2022-08-30T09:38:34;21.88;;;15.32;;
43297;SDS011;28892;55.640;37.532;2022-08-30T09:41:01;20.35;;;15.55;;
43297;SDS011;28892;55.640;37.532;2022-08-30T09:43:51;20.40;;;16.05;;
43297;SDS011;28892;55.640;37.532;2022-08-30T09:46:29;21.52;;;15.90;;
43297;SDS011;28892;55.640;37.532;2022-08-30T09:48:55;23.80;;;15.63;;
43297;SDS011;28892;55.640;37.532;2022-08-30T09:54:20;18.52;;;15.23;;
43297;SDS011;28892;55.640;37.532;2022-08-30T09:57:02;23.98;;;15.68;;
43297;SDS011;28892;55.640;37.532;2022-08-30T10:00:37;17.90;;;14.77;;
43297;SDS011;28892;55.640;37.532;2022-08-30T10:08:17;18.77;;;14.15;;
43297;SDS011;28892;55.640;37.532;2022-08-30T10:21:55;16.95;;;13.13;;
43297;SDS011;28892;55.640;37.532;2022-08-30T10:24:40;18.08;;;13.90;;
43297;SDS011;28892;55.640;37.532;2022-08-30T10:29:52;18.95;;;13.77;;
43297;SDS011;28892;55.640;37.532;2022-08-30T10:35:24;14.88;;;13.25;;
43297;SDS011;28892;55.640;37.532;2022-08-30T10:37:54;17.17;;;13.00;;
43297;SDS011;28892;55.640;37.532;2022-08-30T10:43:36;16.77;;;12.40;;
43297;SDS011;28892;55.640;37.532;2022-08-30T10:49:29;15.82;;;12.75;;
43297;SDS011;28892;55.640;37.532;2022-08-30T10:52:04;15.55;;;12.20;;
43297;SDS011;28892;55.640;37.532;2022-08-30T10:54:38;19.55;;;13.13;;
43297;SDS011;28892;55.640;37.532;2022-08-30T10:57:11;18.63;;;13.05;;
43297;SDS011;28892;55.640;37.532;2022-08-30T10:59:37;16.40;;;12.82;;
43297;SDS011;28892;55.640;37.532;2022-08-30T11:02:22;15.02;;;12.93;;
43297;SDS011;28892;55.640;37.532;2022-08-30T11:07:55;17.70;;;12.38;;
43297;SDS011;28892;55.640;37.532;2022-08-30T11:10:45;16.88;;;12.70;;
43297;SDS011;28892;55.640;37.532;2022-08-30T11:13:20;16.88;;;12.02;;
43297;SDS011;28892;55.640;37.532;2022-08-30T11:16:09;14.82;;;11.93;;
43297;SDS011;28892;55.640;37.532;2022-08-30T11:18:47;14.43;;;11.88;;
43297;SDS011;28892;55.640;37.532;2022-08-30T11:21:23;14.30;;;11.18;;
43297;SDS011;28892;55.640;37.532;2022-08-30T11:31:50;15.07;;;10.60;;
43297;SDS011;28892;55.640;37.532;2022-08-30T11:34:52;14.52;;;10.65;;
43297;SDS011;28892;55.640;37.532;2022-08-30T11:45:45;12.68;;;9.52;;
43297;SDS011;28892;55.640;37.532;2022-08-30T11:50:29;14.60;;;9.55;;
43297;SDS011;28892;55.640;37.532;2022-08-30T11:56:15;12.88;;;9.43;;
43297;SDS011;28892;55.640;37.532;2022-08-30T11:58:50;15.15;;;9.60;;
43297;SDS011;28892;55.640;37.532;2022-08-30T12:06:49;11.70;;;9.45;;
43297;SDS011;28892;55.640;37.532;2022-08-30T12:17:15;13.27;;;9.75;;
43297;SDS011;28892;55.640;37.532;2022-08-30T12:20:21;12.15;;;9.63;;
43297;SDS011;28892;55.640;37.532;2022-08-30T12:22:50;13.20;;;9.35;;
43297;SDS011;28892;55.640;37.532;2022-08-30T12:25:38;14.80;;;9.38;;
43297;SDS011;28892;55.640;37.532;2022-08-30T12:28:13;11.02;;;8.70;;
43297;SDS011;28892;55.640;37.532;2022-08-30T12:30:40;9.95;;;6.45;;
43297;SDS011;28892;55.640;37.532;2022-08-30T12:33:08;10.57;;;6.93;;
43297;SDS011;28892;55.640;37.532;2022-08-30T12:35:36;13.43;;;6.90;;
43297;SDS011;28892;55.640;37.532;2022-08-30T12:38:05;8.95;;;6.75;;
43297;SDS011;28892;55.640;37.532;2022-08-30T12:40:40;14.43;;;7.22;;
43297;SDS011;28892;55.640;37.532;2022-08-30T12:46:14;8.98;;;6.05;;
43297;SDS011;28892;55.640;37.532;2022-08-30T12:48:42;9.60;;;6.93;;
43297;SDS011;28892;55.640;37.532;2022-08-30T12:51:08;9.27;;;5.65;;
43297;SDS011;28892;55.640;37.532;2022-08-30T12:53:52;12.57;;;7.25;;
43297;SDS011;28892;55.640;37.532;2022-08-30T12:56:17;11.40;;;7.18;;
43297;SDS011;28892;55.640;37.532;2022-08-30T12:58:45;14.73;;;7.03;;
43297;SDS011;28892;55.640;37.532;2022-08-30T13:01:17;10.00;;;6.15;;
43297;SDS011;28892;55.640;37.532;2022-08-30T13:03:56;10.02;;;6.78;;
43297;SDS011;28892;55.640;37.532;2022-08-30T13:06:54;11.52;;;5.97;;
43297;SDS011;28892;55.640;37.532;2022-08-30T13:09:32;12.43;;;7.55;;
43297;SDS011;28892;55.640;37.532;2022-08-30T13:11:59;16.05;;;7.95;;
43297;SDS011;28892;55.640;37.532;2022-08-30T13:22:30;10.00;;;6.97;;
43297;SDS011;28892;55.640;37.532;2022-08-30T13:25:00;11.88;;;7.53;;
43297;SDS011;28892;55.640;37.532;2022-08-30T13:27:26;13.95;;;6.50;;
43297;SDS011;28892;55.640;37.532;2022-08-30T13:29:53;10.98;;;7.25;;
43297;SDS011;28892;55.640;37.532;2022-08-30T13:32:20;10.73;;;6.60;;
43297;SDS011;28892;55.640;37.532;2022-08-30T13:34:47;11.52;;;7.22;;
43297;SDS011;28892;55.640;37.532;2022-08-30T13:37:14;12.77;;;6.88;;
43297;SDS011;28892;55.640;37.532;2022-08-30T13:39:44;14.95;;;7.57;;
43297;SDS011;28892;55.640;37.532;2022-08-30T13:42:10;14.75;;;6.88;;
43297;SDS011;28892;55.640;37.532;2022-08-30T13:44:35;13.25;;;6.88;;
43297;SDS011;28892;55.640;37.532;2022-08-30T13:47:01;10.35;;;7.05;;
43297;SDS011;28892;55.640;37.532;2022-08-30T13:49:32;17.83;;;7.38;;
43297;SDS011;28892;55.640;37.532;2022-08-30T13:52:00;11.50;;;7.30;;
43297;SDS011;28892;55.640;37.532;2022-08-30T13:54:29;14.40;;;7.45;;
43297;SDS011;28892;55.640;37.532;2022-08-30T13:56:55;11.48;;;7.10;;
43297;SDS011;28892;55.640;37.532;2022-08-30T13:59:22;12.05;;;7.18;;
43297;SDS011;28892;55.640;37.532;2022-08-30T14:01:48;12.95;;;7.50;;
43297;SDS011;28892;55.640;37.532;2022-08-30T14:04:15;13.45;;;6.85;;
43297;SDS011;28892;55.640;37.532;2022-08-30T14:06:41;13.98;;;7.65;;
43297;SDS011;28892;55.640;37.532;2022-08-30T14:09:07;14.70;;;7.72;;
43297;SDS011;28892;55.640;37.532;2022-08-30T14:11:34;14.95;;;7.57;;
43297;SDS011;28892;55.640;37.532;2022-08-30T14:14:01;10.20;;;6.32;;
43297;SDS011;28892;55.640;37.532;2022-08-30T14:16:27;11.30;;;6.57;;
43297;SDS011;28892;55.640;37.532;2022-08-30T14:18:54;12.10;;;6.45;;
43297;SDS011;28892;55.640;37.532;2022-08-30T14:21:20;11.68;;;6.10;;
43297;SDS011;28892;55.640;37.532;2022-08-30T14:23:45;14.65;;;6.55;;
43297;SDS011;28892;55.640;37.532;2022-08-30T14:26:33;11.68;;;6.32;;
43297;SDS011;28892;55.640;37.532;2022-08-30T14:29:08;11.27;;;6.20;;
43297;SDS011;28892;55.640;37.532;2022-08-30T14:31:36;17.20;;;6.72;;
43297;SDS011;28892;55.640;37.532;2022-08-30T14:34:06;15.98;;;6.47;;
43297;SDS011;28892;55.640;37.532;2022-08-30T14:36:34;13.60;;;6.07;;
43297;SDS011;28892;55.640;37.532;2022-08-30T14:39:03;16.45;;;5.75;;
43297;SDS011;28892;55.640;37.532;2022-08-30T14:41:30;14.57;;;5.50;;
43297;SDS011;28892;55.640;37.532;2022-08-30T14:43:56;17.75;;;5.80;;
43297;SDS011;28892;55.640;37.532;2022-08-30T14:46:22;11.90;;;5.40;;
43297;SDS011;28892;55.640;37.532;2022-08-30T14:48:49;15.35;;;5.85;;
43297;SDS011;28892;55.640;37.532;2022-08-30T14:51:16;15.68;;;6.40;;
43297;SDS011;28892;55.640;37.532;2022-08-30T14:53:43;20.40;;;6.32;;
43297;SDS011;28892;55.640;37.532;2022-08-30T14:56:11;22.10;;;6.47;;
43297;SDS011;28892;55.640;37.532;2022-08-30T14:58:39;15.25;;;5.53;;
43297;SDS011;28892;55.640;37.532;2022-08-30T15:01:05;16.05;;;5.82;;
43297;SDS011;28892;55.640;37.532;2022-08-30T15:03:35;12.75;;;5.47;;
43297;SDS011;28892;55.640;37.532;2022-08-30T15:06:03;15.57;;;6.00;;
43297;SDS011;28892;55.640;37.532;2022-08-30T15:08:30;13.65;;;6.20;;
43297;SDS011;28892;55.640;37.532;2022-08-30T15:10:56;15.35;;;5.95;;
43297;SDS011;28892;55.640;37.532;2022-08-30T15:13:23;13.15;;;5.57;;
43297;SDS011;28892;55.640;37.532;2022-08-30T15:15:49;18.73;;;5.47;;
43297;SDS011;28892;55.640;37.532;2022-08-30T15:18:15;13.52;;;5.30;;
43297;SDS011;28892;55.640;37.532;2022-08-30T15:20:45;15.75;;;5.53;;
43297;SDS011;28892;55.640;37.532;2022-08-30T15:23:12;17.92;;;6.57;;
43297;SDS011;28892;55.640;37.532;2022-08-30T15:25:38;17.10;;;5.63;;
43297;SDS011;28892;55.640;37.532;2022-08-30T15:28:03;18.20;;;5.28;;
43297;SDS011;28892;55.640;37.532;2022-08-30T15:30:29;17.42;;;5.95;;
43297;SDS011;28892;55.640;37.532;2022-08-30T15:32:55;17.23;;;5.30;;
43297;SDS011;28892;55.640;37.532;2022-08-30T15:35:20;16.38;;;5.97;;
43297;SDS011;28892;55.640;37.532;2022-08-30T15:37:46;15.00;;;5.72;;
43297;SDS011;28892;55.640;37.532;2022-08-30T15:40:11;18.10;;;5.90;;
43297;SDS011;28892;55.640;37.532;2022-08-30T15:42:37;16.75;;;6.05;;
43297;SDS011;28892;55.640;37.532;2022-08-30T15:45:03;14.57;;;5.82;;
43297;SDS011;28892;55.640;37.532;2022-08-30T15:47:30;18.48;;;5.20;;
43297;SDS011;28892;55.640;37.532;2022-08-30T15:50:00;18.05;;;5.50;;
43297;SDS011;28892;55.640;37.532;2022-08-30T15:52:29;16.55;;;6.18;;
43297;SDS011;28892;55.640;37.532;2022-08-30T15:54:55;15.75;;;5.60;;
43297;SDS011;28892;55.640;37.532;2022-08-30T15:57:21;18.83;;;5.72;;
43297;SDS011;28892;55.640;37.532;2022-08-30T15:59:47;15.68;;;5.40;;